Time;durP1;ratioP1;P1;durP2;ratioP2;P2;SDS_P1;SDS_P2;PMS_P1;PMS_P2;Temp;Humidity;BMP_temperature;BMP_pressure;BME280_temperature;BME280_humidity;BME280_pressure;Samples;Min_cycle;Max_cycle;Signal;HPM_P1;HPM_P2
2024/01/14 00:00:58;;;;;;;44.03;12.57;;;1.90;99.90;;;;;;5013155;28;20032;-49
2024/01/14 00:03:24;;;;;;;40.67;11.80;;;1.90;99.90;;;;;;5013075;28;20037;-53
2024/01/14 00:05:49;;;;;;;40.53;11.83;;;1.90;99.90;;;;;;5012989;28;20475;-52
2024/01/14 00:08:15;;;;;;;41.90;13.03;;;2.00;99.90;;;;;;5013132;28;20476;-54
2024/01/14 00:10:40;;;;;;;45.20;12.77;;;2.00;99.90;;;;;;5012718;28;20052;-52
2024/01/14 00:13:06;;;;;;;41.00;13.07;;;2.00;99.90;;;;;;5012809;28;20022;-52
2024/01/14 00:15:32;;;;;;;35.13;10.57;;;2.00;99.90;;;;;;5012677;28;20060;-53
2024/01/14 00:17:57;;;;;;;46.80;12.60;;;2.00;99.90;;;;;;5011666;28;20472;-54
2024/01/14 00:20:23;;;;;;;48.17;12.47;;;2.00;99.90;;;;;;5012763;28;20033;-52
2024/01/14 00:22:48;;;;;;;44.33;12.27;;;1.90;99.90;;;;;;5012741;28;20038;-51
2024/01/14 00:25:15;;;;;;;41.03;12.30;;;1.90;99.90;;;;;;5012720;28;20034;-54
2024/01/14 00:27:40;;;;;;;45.50;12.73;;;1.90;99.90;;;;;;5012675;28;20030;-54
2024/01/14 00:30:06;;;;;;;44.33;12.27;;;1.90;99.90;;;;;;5012386;28;20505;-55
2024/01/14 00:32:32;;;;;;;40.47;11.97;;;1.90;99.90;;;;;;5012658;28;20442;-54
2024/01/14 00:34:58;;;;;;;46.47;13.13;;;2.00;99.90;;;;;;5012528;28;20034;-50
2024/01/14 00:37:24;;;;;;;39.57;12.27;;;2.00;99.90;;;;;;5012548;28;20041;-50
2024/01/14 00:39:50;;;;;;;42.03;13.23;;;2.00;99.90;;;;;;5012293;28;20036;-53
2024/01/14 00:42:16;;;;;;;46.83;12.83;;;1.90;99.90;;;;;;5012485;28;20033;-53
2024/01/14 00:44:42;;;;;;;37.87;12.00;;;1.90;99.90;;;;;;5012500;28;20108;-54
2024/01/14 00:47:08;;;;;;;39.07;13.17;;;2.00;99.90;;;;;;5012619;28;20077;-54
2024/01/14 00:49:33;;;;;;;44.00;12.70;;;1.90;99.90;;;;;;5012486;28;20048;-49
2024/01/14 00:51:59;;;;;;;47.77;12.30;;;1.90;99.90;;;;;;5012347;28;20026;-53
2024/01/14 00:54:25;;;;;;;36.17;13.10;;;1.90;99.90;;;;;;5012722;28;20104;-55
2024/01/14 00:56:51;;;;;;;44.97;11.37;;;2.00;99.90;;;;;;5012319;28;20478;-55
2024/01/14 00:59:16;;;;;;;39.67;12.50;;;1.90;99.90;;;;;;5012204;28;20030;-49
2024/01/14 01:01:42;;;;;;;38.97;10.50;;;1.90;99.90;;;;;;5012230;28;20096;-53
2024/01/14 01:04:07;;;;;;;46.80;11.50;;;1.90;99.90;;;;;;5012576;28;20030;-54
2024/01/14 01:06:33;;;;;;;40.13;10.60;;;2.00;99.90;;;;;;5012390;28;20113;-53
2024/01/14 01:08:59;;;;;;;37.97;10.50;;;2.00;99.90;;;;;;5015612;28;20470;-54
2024/01/14 01:11:25;;;;;;;37.00;10.30;;;2.00;99.90;;;;;;5016356;28;20426;-54
2024/01/14 01:13:51;;;;;;;40.30;11.93;;;1.90;99.90;;;;;;5015069;28;20033;-51
2024/01/14 01:16:17;;;;;;;40.93;11.53;;;1.90;99.90;;;;;;5016156;28;20490;-53
2024/01/14 01:18:42;;;;;;;46.57;12.13;;;2.00;99.90;;;;;;5016031;28;20034;-54
2024/01/14 01:21:08;;;;;;;40.60;11.90;;;1.90;99.90;;;;;;5016141;28;20487;-53
2024/01/14 01:23:34;;;;;;;33.13;11.87;;;1.90;99.90;;;;;;5015999;28;20083;-53
2024/01/14 01:25:59;;;;;;;39.63;12.60;;;1.90;99.90;;;;;;5016140;28;20038;-53
2024/01/14 01:28:25;;;;;;;43.70;12.27;;;1.90;99.90;;;;;;5015914;28;20034;-51
2024/01/14 01:30:50;;;;;;;45.03;13.37;;;1.90;99.90;;;;;;5015813;28;20033;-50
2024/01/14 01:33:16;;;;;;;40.87;12.13;;;1.80;99.90;;;;;;5015830;28;20091;-52
2024/01/14 01:35:42;;;;;;;40.30;12.53;;;1.90;99.90;;;;;;5015851;28;20033;-53
2024/01/14 01:38:07;;;;;;;45.90;11.47;;;1.80;99.90;;;;;;5015677;28;20030;-54
2024/01/14 01:40:33;;;;;;;40.60;11.87;;;1.90;99.90;;;;;;5015622;28;20061;-53
2024/01/14 01:42:58;;;;;;;44.33;12.63;;;1.90;99.90;;;;;;5015500;28;20026;-54
2024/01/14 01:45:24;;;;;;;51.77;14.47;;;1.90;99.90;;;;;;5015720;28;20470;-54
2024/01/14 01:47:50;;;;;;;43.60;12.00;;;1.90;99.90;;;;;;5014380;28;20092;-52
2024/01/14 01:50:15;;;;;;;43.10;12.80;;;1.80;99.90;;;;;;5015568;28;20062;-55
2024/01/14 01:52:41;;;;;;;44.67;12.47;;;1.90;99.90;;;;;;5015588;28;20029;-55
2024/01/14 01:55:08;;;;;;;38.17;12.07;;;1.90;99.90;;;;;;5015593;28;20084;-53
2024/01/14 01:57:34;;;;;;;40.03;11.73;;;1.80;99.90;;;;;;5015287;28;20038;-55
2024/01/14 02:00:00;;;;;;;41.63;11.80;;;1.90;99.90;;;;;;5015277;28;20032;-54
2024/01/14 02:02:26;;;;;;;48.07;13.30;;;2.00;99.90;;;;;;5014108;28;20054;-53
2024/01/14 02:04:52;;;;;;;44.40;12.77;;;2.00;99.90;;;;;;5015443;28;20442;-51
2024/01/14 02:07:20;;;;;;;45.03;12.37;;;1.90;99.90;;;;;;5015457;28;20030;-51
2024/01/14 02:09:45;;;;;;;49.63;12.87;;;1.90;99.90;;;;;;5014820;28;20038;-53
2024/01/14 02:12:11;;;;;;;48.17;13.40;;;1.90;99.90;;;;;;5014987;28;20088;-52
2024/01/14 02:14:37;;;;;;;47.37;13.23;;;1.90;99.90;;;;;;5015027;28;20040;-50
2024/01/14 02:17:02;;;;;;;44.90;12.03;;;1.80;99.90;;;;;;5015050;28;20072;-54
2024/01/14 02:19:28;;;;;;;45.43;12.37;;;1.90;99.90;;;;;;5014533;28;20029;-54
2024/01/14 02:22:10;;;;;;;38.60;12.47;;;1.80;99.90;;;;;;5014832;28;20044;-54
2024/01/14 02:24:38;;;;;;;44.27;10.47;;;1.90;99.90;;;;;;5015021;28;20084;-50
2024/01/14 02:27:04;;;;;;;46.87;12.83;;;1.90;99.90;;;;;;5014993;28;20045;-52
2024/01/14 02:29:30;;;;;;;47.40;13.63;;;1.90;99.90;;;;;;5014791;28;20034;-54
2024/01/14 02:31:56;;;;;;;44.53;14.20;;;1.90;99.90;;;;;;5014707;28;20092;-54
2024/01/14 02:34:22;;;;;;;42.93;11.90;;;1.80;99.90;;;;;;5014863;28;20029;-51
2024/01/14 02:36:48;;;;;;;40.50;12.00;;;1.80;99.90;;;;;;5014648;28;20045;-53
2024/01/14 02:39:16;;;;;;;39.53;12.53;;;1.80;99.90;;;;;;5014423;28;20445;-50
2024/01/14 02:41:42;;;;;;;42.73;11.50;;;1.90;99.90;;;;;;5014535;28;20522;-51
2024/01/14 02:44:08;;;;;;;43.73;13.77;;;1.90;99.90;;;;;;5014558;28;20083;-49
2024/01/14 02:46:35;;;;;;;44.90;12.67;;;1.90;99.90;;;;;;5014498;28;20033;-49
2024/01/14 02:49:00;;;;;;;49.33;13.07;;;1.80;99.90;;;;;;5014433;28;20038;-53
2024/01/14 02:51:26;;;;;;;40.00;12.13;;;1.90;99.90;;;;;;5014310;28;20029;-50
2024/01/14 02:53:52;;;;;;;44.37;11.77;;;1.90;99.90;;;;;;5014200;28;20033;-51
2024/01/14 02:56:18;;;;;;;43.33;12.77;;;1.90;99.90;;;;;;5014232;28;20493;-53
2024/01/14 02:58:44;;;;;;;45.60;12.20;;;1.90;99.90;;;;;;5014035;28;20034;-54
2024/01/14 03:01:11;;;;;;;46.37;14.03;;;1.90;99.90;;;;;;5012918;28;20115;-50
2024/01/14 03:03:37;;;;;;;43.97;11.60;;;1.90;99.90;;;;;;5014102;28;20456;-54
2024/01/14 03:06:03;;;;;;;44.60;13.57;;;1.90;99.90;;;;;;5013248;28;20034;-52
2024/01/14 03:08:29;;;;;;;49.23;12.37;;;1.80;99.90;;;;;;5014074;28;20088;-48
2024/01/14 03:10:55;;;;;;;44.20;13.97;;;1.90;99.90;;;;;;5013711;28;20038;-54
2024/01/14 03:13:20;;;;;;;46.60;13.67;;;1.90;99.90;;;;;;5014024;28;20394;-51
2024/01/14 03:15:46;;;;;;;55.33;15.67;;;1.90;99.90;;;;;;5014027;28;20034;-53
2024/01/14 03:18:12;;;;;;;50.07;12.83;;;1.90;99.90;;;;;;5014051;28;20081;-49
2024/01/14 03:20:38;;;;;;;46.60;12.67;;;1.90;99.90;;;;;;5013702;28;20108;-53
2024/01/14 03:23:04;;;;;;;45.60;13.27;;;1.90;99.90;;;;;;5013771;28;20038;-52
2024/01/14 03:25:30;;;;;;;47.80;13.10;;;1.90;99.90;;;;;;5013821;28;20018;-53
2024/01/14 03:27:55;;;;;;;45.63;13.13;;;1.90;99.90;;;;;;5013658;28;20125;-52
2024/01/14 03:30:21;;;;;;;45.50;13.00;;;1.90;99.90;;;;;;5012762;28;20034;-49
2024/01/14 03:32:46;;;;;;;50.67;13.47;;;1.90;99.90;;;;;;5013777;28;20469;-53
2024/01/14 03:35:12;;;;;;;40.50;11.83;;;1.90;99.90;;;;;;5013595;28;20034;-50
2024/01/14 03:37:38;;;;;;;48.00;12.83;;;1.80;99.90;;;;;;5013335;28;20518;-51
2024/01/14 03:40:05;;;;;;;45.30;12.03;;;1.80;99.90;;;;;;5013216;28;20034;-55
2024/01/14 03:42:30;;;;;;;42.70;13.27;;;1.80;99.90;;;;;;5013527;28;20800;-49
2024/01/14 03:44:57;;;;;;;44.77;12.57;;;1.80;99.90;;;;;;5012369;28;20125;-53
2024/01/14 03:47:22;;;;;;;42.00;11.43;;;1.90;99.90;;;;;;5013400;28;20045;-53
2024/01/14 03:49:48;;;;;;;43.87;12.73;;;1.90;99.90;;;;;;5013213;28;20026;-53
2024/01/14 03:52:13;;;;;;;39.30;12.13;;;1.90;99.90;;;;;;5013719;28;20034;-54
2024/01/14 03:54:39;;;;;;;37.13;10.73;;;1.90;99.90;;;;;;5013303;28;20053;-49
2024/01/14 03:57:05;;;;;;;38.77;11.13;;;1.90;99.90;;;;;;5013349;28;20100;-51
2024/01/14 03:59:30;;;;;;;36.10;11.10;;;1.90;99.90;;;;;;5013138;28;20034;-51
2024/01/14 04:01:56;;;;;;;38.03;11.23;;;1.80;99.90;;;;;;5012905;28;20026;-53
2024/01/14 04:04:21;;;;;;;34.80;11.30;;;1.70;99.90;;;;;;5013193;28;20033;-51
2024/01/14 04:06:47;;;;;;;45.40;12.73;;;1.80;99.90;;;;;;5013004;28;20066;-54
2024/01/14 04:09:13;;;;;;;43.17;11.70;;;1.80;99.90;;;;;;5012694;28;20057;-54
2024/01/14 04:11:38;;;;;;;40.23;11.57;;;1.80;99.90;;;;;;5012858;28;20025;-51
2024/01/14 04:14:04;;;;;;;32.07;10.83;;;1.80;99.90;;;;;;5012806;28;20040;-52
2024/01/14 04:16:37;;;;;;;40.87;11.67;;;1.80;99.90;;;;;;5012675;28;20125;-52
2024/01/14 04:19:04;;;;;;;39.20;10.73;;;1.80;99.90;;;;;;5012540;28;20045;-53
2024/01/14 04:21:29;;;;;;;40.30;10.80;;;1.80;99.90;;;;;;5012597;28;20045;-49
2024/01/14 04:23:55;;;;;;;35.47;12.03;;;1.80;99.90;;;;;;5012600;28;20033;-52
2024/01/14 04:26:22;;;;;;;41.50;11.93;;;1.90;99.90;;;;;;5012830;28;20491;-50
2024/01/14 04:28:49;;;;;;;36.83;10.83;;;1.80;99.90;;;;;;5012596;28;20056;-51
2024/01/14 04:31:15;;;;;;;34.13;11.23;;;1.80;99.90;;;;;;5012579;28;20044;-51
2024/01/14 04:33:40;;;;;;;40.27;12.27;;;1.80;99.90;;;;;;5012543;28;20037;-54
2024/01/14 04:36:06;;;;;;;44.30;10.57;;;1.80;99.90;;;;;;5012618;28;20514;-53
2024/01/14 04:38:32;;;;;;;36.40;12.10;;;1.80;99.90;;;;;;5013035;28;20029;-49
2024/01/14 04:40:57;;;;;;;43.07;13.37;;;1.80;99.90;;;;;;5012402;28;20241;-54
2024/01/14 04:43:23;;;;;;;41.93;12.57;;;1.80;99.90;;;;;;5012487;28;20055;-53
2024/01/14 04:45:49;;;;;;;37.10;10.93;;;1.80;99.90;;;;;;5012682;28;20024;-53
2024/01/14 04:48:14;;;;;;;37.83;11.90;;;1.80;99.90;;;;;;5012449;28;20621;-52
2024/01/14 04:50:40;;;;;;;34.00;10.43;;;1.70;99.90;;;;;;5012220;28;20526;-52
2024/01/14 04:53:06;;;;;;;48.33;14.47;;;1.70;99.90;;;;;;5012250;28;20034;-48
2024/01/14 04:55:32;;;;;;;37.23;10.60;;;1.80;99.90;;;;;;5012682;28;20030;-49
2024/01/14 04:57:58;;;;;;;39.43;11.30;;;1.80;99.90;;;;;;5012422;28;20034;-51
2024/01/14 05:00:23;;;;;;;32.50;10.77;;;1.80;99.90;;;;;;5012335;28;20033;-54
2024/01/14 05:02:49;;;;;;;43.03;12.97;;;1.80;99.90;;;;;;5012507;28;20394;-49
2024/01/14 05:05:15;;;;;;;32.57;10.87;;;1.80;99.90;;;;;;5012208;28;20264;-51
2024/01/14 05:07:41;;;;;;;35.93;11.50;;;1.80;99.90;;;;;;5012156;28;20037;-50
2024/01/14 05:10:07;;;;;;;43.33;12.97;;;1.70;99.90;;;;;;5011738;28;20105;-51
2024/01/14 05:12:33;;;;;;;42.57;12.60;;;1.70;99.90;;;;;;5012079;28;20120;-50
2024/01/14 05:14:59;;;;;;;45.00;14.00;;;1.70;99.90;;;;;;5012128;28;20122;-50
2024/01/14 05:17:24;;;;;;;50.77;11.80;;;1.70;99.90;;;;;;5011915;28;20053;-51
2024/01/14 05:19:51;;;;;;;35.43;12.10;;;1.70;99.90;;;;;;5011885;28;20022;-53
2024/01/14 05:22:17;;;;;;;43.27;12.67;;;1.70;99.90;;;;;;5012110;28;20033;-50
2024/01/14 05:24:43;;;;;;;36.00;12.47;;;1.70;99.90;;;;;;5010834;28;20483;-54
2024/01/14 05:27:11;;;;;;;41.17;12.60;;;1.80;99.90;;;;;;5010889;28;20037;-48
2024/01/14 05:29:43;;;;;;;43.10;13.50;;;1.70;99.90;;;;;;5011873;28;20440;-52
2024/01/14 05:32:14;;;;;;;41.40;11.33;;;1.70;99.90;;;;;;5011919;28;20434;-51
2024/01/14 05:34:40;;;;;;;37.33;10.17;;;1.60;99.90;;;;;;5012161;28;20037;-51
2024/01/14 05:37:06;;;;;;;35.27;10.97;;;1.70;99.90;;;;;;5012182;28;20201;-54
2024/01/14 05:39:33;;;;;;;40.30;12.83;;;1.70;99.90;;;;;;5011689;28;20131;-52
2024/01/14 05:41:59;;;;;;;40.43;12.53;;;1.70;99.90;;;;;;5011709;28;20391;-53
2024/01/14 05:44:25;;;;;;;35.23;10.97;;;1.70;99.90;;;;;;5011901;28;20030;-53
2024/01/14 05:46:54;;;;;;;37.20;11.97;;;1.70;99.90;;;;;;5011878;28;20038;-54
2024/01/14 05:49:20;;;;;;;42.30;12.27;;;1.60;99.90;;;;;;5010496;28;20029;-50
2024/01/14 05:51:46;;;;;;;40.03;11.23;;;1.60;99.90;;;;;;5011604;28;20038;-52
2024/01/14 05:54:13;;;;;;;41.90;11.50;;;1.60;99.90;;;;;;5013733;28;20088;-50
2024/01/14 05:56:38;;;;;;;42.67;11.60;;;1.60;99.90;;;;;;5015509;28;20076;-49
2024/01/14 05:59:04;;;;;;;38.13;12.67;;;1.70;99.90;;;;;;5015311;28;20438;-52
2024/01/14 06:01:30;;;;;;;40.83;11.37;;;1.70;99.90;;;;;;5015185;28;20026;-53
2024/01/14 06:03:56;;;;;;;40.47;11.67;;;1.70;99.90;;;;;;5015332;28;20096;-52
2024/01/14 06:06:22;;;;;;;37.37;11.87;;;1.70;99.90;;;;;;5015675;28;20044;-50
2024/01/14 06:08:47;;;;;;;41.63;12.87;;;1.70;99.90;;;;;;5015137;28;20034;-50
2024/01/14 06:11:13;;;;;;;37.57;11.07;;;1.60;99.90;;;;;;5015044;28;20462;-49
2024/01/14 06:13:40;;;;;;;38.00;12.17;;;1.60;99.90;;;;;;5015210;28;20033;-50
2024/01/14 06:16:05;;;;;;;40.60;11.90;;;1.60;99.90;;;;;;5015327;28;20379;-48
2024/01/14 06:18:31;;;;;;;36.23;11.00;;;1.60;99.90;;;;;;5015306;28;20022;-49
2024/01/14 06:20:59;;;;;;;41.07;11.57;;;1.60;99.90;;;;;;5014868;28;20100;-50
2024/01/14 06:23:25;;;;;;;39.20;11.60;;;1.60;99.90;;;;;;5015554;28;20026;-48
2024/01/14 06:25:51;;;;;;;40.10;11.27;;;1.60;99.90;;;;;;5015385;28;20099;-52
2024/01/14 06:28:17;;;;;;;34.90;10.33;;;1.60;99.90;;;;;;5015103;28;20495;-49
2024/01/14 06:30:43;;;;;;;41.50;11.43;;;1.60;99.90;;;;;;5015614;28;20029;-52
2024/01/14 06:33:09;;;;;;;38.17;9.93;;;1.70;99.90;;;;;;5015279;28;20293;-53
2024/01/14 06:35:35;;;;;;;37.67;10.63;;;1.80;99.90;;;;;;5016763;28;20041;-53
2024/01/14 06:38:00;;;;;;;38.03;11.10;;;1.80;99.90;;;;;;5015905;28;20037;-53
2024/01/14 06:40:26;;;;;;;37.17;10.87;;;1.70;99.90;;;;;;5016382;28;20053;-54
2024/01/14 06:42:52;;;;;;;34.50;11.00;;;1.70;99.90;;;;;;5016628;28;20022;-51
2024/01/14 06:45:18;;;;;;;40.03;10.67;;;1.70;99.90;;;;;;5016782;28;20466;-54
2024/01/14 06:47:44;;;;;;;34.17;11.30;;;1.60;99.90;;;;;;5016147;28;20069;-53
2024/01/14 06:50:10;;;;;;;38.63;11.40;;;1.60;99.90;;;;;;5016328;28;20026;-53
2024/01/14 06:52:37;;;;;;;31.63;10.60;;;1.60;99.90;;;;;;5015733;28;20030;-54
2024/01/14 06:55:06;;;;;;;33.57;9.53;;;1.60;99.90;;;;;;5014350;28;20053;-54
2024/01/14 06:57:32;;;;;;;39.63;10.90;;;1.60;99.90;;;;;;5014291;28;20038;-54
2024/01/14 07:00:04;;;;;;;33.70;10.50;;;1.60;99.90;;;;;;5012908;28;20111;-53
2024/01/14 07:02:30;;;;;;;32.93;10.83;;;1.60;99.90;;;;;;5014363;28;20117;-48
2024/01/14 07:04:56;;;;;;;36.00;10.43;;;1.70;99.90;;;;;;5013117;28;20057;-54
2024/01/14 07:07:22;;;;;;;35.20;11.83;;;1.60;99.90;;;;;;5014296;28;20060;-51
2024/01/14 07:09:48;;;;;;;31.93;11.43;;;1.60;99.90;;;;;;5013734;28;20038;-51
2024/01/14 07:12:14;;;;;;;36.17;11.57;;;1.60;99.90;;;;;;5013905;28;20045;-54
2024/01/14 07:14:39;;;;;;;31.87;11.10;;;1.60;99.90;;;;;;5014160;28;20018;-51
2024/01/14 07:17:05;;;;;;;36.13;10.70;;;1.70;99.90;;;;;;5013911;28;20617;-53
2024/01/14 07:19:30;;;;;;;40.80;11.60;;;1.70;99.90;;;;;;5014246;28;20026;-53
2024/01/14 07:21:56;;;;;;;28.20;10.27;;;1.70;99.90;;;;;;5013684;28;20029;-54
2024/01/14 07:24:22;;;;;;;33.97;10.70;;;1.60;99.90;;;;;;5013874;28;20053;-54
2024/01/14 07:26:48;;;;;;;41.40;11.03;;;1.60;99.90;;;;;;5013769;28;20041;-48
2024/01/14 07:29:13;;;;;;;38.00;11.17;;;1.70;99.90;;;;;;5013779;28;20141;-53
2024/01/14 07:31:39;;;;;;;37.20;10.37;;;1.70;99.90;;;;;;5013765;28;20113;-53
2024/01/14 07:34:05;;;;;;;37.60;10.40;;;1.60;99.90;;;;;;5013442;28;20060;-51
2024/01/14 07:36:31;;;;;;;33.30;9.80;;;1.70;99.90;;;;;;5013420;28;20088;-50
2024/01/14 07:38:58;;;;;;;34.67;11.23;;;1.60;99.90;;;;;;5013336;28;20491;-48
2024/01/14 07:41:24;;;;;;;35.23;9.87;;;1.60;99.90;;;;;;5013177;28;20033;-51
2024/01/14 07:43:50;;;;;;;32.87;11.60;;;1.60;99.90;;;;;;5013477;28;20502;-50
2024/01/14 07:46:16;;;;;;;34.27;10.77;;;1.60;99.90;;;;;;5013354;28;20041;-53
2024/01/14 07:48:42;;;;;;;34.43;9.93;;;1.60;99.90;;;;;;5013126;28;20054;-50
2024/01/14 07:51:07;;;;;;;34.63;9.77;;;1.60;99.90;;;;;;5013100;28;20106;-50
2024/01/14 07:53:33;;;;;;;32.27;9.87;;;1.60;99.90;;;;;;5013229;28;20662;-52
2024/01/14 07:56:01;;;;;;;32.90;10.40;;;1.70;99.90;;;;;;5012952;28;20038;-54
2024/01/14 07:58:27;;;;;;;38.30;11.50;;;1.70;99.90;;;;;;5013154;28;20026;-54
2024/01/14 08:00:53;;;;;;;32.10;10.13;;;1.70;99.90;;;;;;5012914;28;20026;-50
2024/01/14 08:03:18;;;;;;;41.87;12.17;;;1.60;99.90;;;;;;5013044;28;20026;-54
2024/01/14 08:05:44;;;;;;;45.67;11.90;;;1.60;99.90;;;;;;5013062;28;20048;-49
2024/01/14 08:08:10;;;;;;;38.50;11.97;;;1.60;99.90;;;;;;5012987;28;20030;-55
2024/01/14 08:10:36;;;;;;;34.37;10.97;;;1.60;99.90;;;;;;5012667;28;20123;-52
2024/01/14 08:13:01;;;;;;;30.83;10.47;;;1.60;99.90;;;;;;5013634;28;20056;-53
2024/01/14 08:15:27;;;;;;;38.20;11.63;;;1.60;99.90;;;;;;5013587;28;20080;-52
2024/01/14 08:17:53;;;;;;;31.20;10.20;;;1.60;99.90;;;;;;5012846;28;20036;-50
2024/01/14 08:20:19;;;;;;;33.83;11.03;;;1.60;99.90;;;;;;5012650;28;20110;-48
2024/01/14 08:22:45;;;;;;;36.17;11.33;;;1.60;99.90;;;;;;5012672;28;20026;-50
2024/01/14 08:25:10;;;;;;;39.07;10.80;;;1.60;99.90;;;;;;5012684;28;20538;-51
2024/01/14 08:27:38;;;;;;;27.73;9.80;;;1.50;99.90;;;;;;5012610;28;20045;-48
2024/01/14 08:30:05;;;;;;;36.57;10.90;;;1.60;99.90;;;;;;5012357;28;20105;-50
2024/01/14 08:32:30;;;;;;;34.60;10.77;;;1.60;99.90;;;;;;5012511;28;20045;-53
2024/01/14 08:34:56;;;;;;;30.97;10.27;;;1.60;99.90;;;;;;5012542;28;20483;-50
2024/01/14 08:37:23;;;;;;;37.30;10.37;;;1.60;99.90;;;;;;5013034;28;20030;-53
2024/01/14 08:39:50;;;;;;;29.40;9.83;;;1.60;99.90;;;;;;5012190;28;20034;-50
2024/01/14 08:42:19;;;;;;;32.13;9.93;;;1.60;99.90;;;;;;5011197;28;20079;-50
2024/01/14 08:44:44;;;;;;;35.77;10.70;;;1.60;99.90;;;;;;5012544;28;20108;-51
2024/01/14 08:47:10;;;;;;;29.60;9.63;;;1.60;99.90;;;;;;5012406;28;20120;-48
2024/01/14 08:49:36;;;;;;;33.93;10.40;;;1.60;99.90;;;;;;5012177;28;20073;-55
2024/01/14 08:52:01;;;;;;;27.03;7.97;;;1.60;99.90;;;;;;5012029;28;20446;-51
2024/01/14 08:54:34;;;;;;;36.43;9.50;;;1.60;99.90;;;;;;5012078;28;20030;-53
2024/01/14 08:56:59;;;;;;;26.53;8.30;;;1.60;99.90;;;;;;5012178;28;20033;-53
2024/01/14 08:59:25;;;;;;;31.83;10.13;;;1.60;99.90;;;;;;5012113;28;20471;-53
2024/01/14 09:01:51;;;;;;;28.60;9.07;;;1.60;99.90;;;;;;5012109;28;20025;-53
2024/01/14 09:04:17;;;;;;;26.93;10.07;;;1.50;99.90;;;;;;5012403;28;20022;-49
2024/01/14 09:06:43;;;;;;;29.03;8.27;;;1.50;99.90;;;;;;5012655;28;20117;-52
2024/01/14 09:09:09;;;;;;;22.07;8.30;;;1.50;99.90;;;;;;5012289;28;20037;-54
2024/01/14 09:11:34;;;;;;;30.93;8.93;;;1.50;99.90;;;;;;5011972;28;20034;-48
2024/01/14 09:14:00;;;;;;;25.40;9.50;;;1.50;99.90;;;;;;5012099;28;20076;-54
2024/01/14 09:16:26;;;;;;;26.80;8.10;;;1.40;99.90;;;;;;5012061;28;20038;-53
2024/01/14 09:18:51;;;;;;;30.77;9.07;;;1.40;99.90;;;;;;5012062;28;20030;-51
2024/01/14 09:21:17;;;;;;;26.33;8.80;;;1.50;99.90;;;;;;5011758;28;20026;-50
2024/01/14 09:23:43;;;;;;;29.40;8.57;;;1.40;99.90;;;;;;5011983;28;20037;-53
2024/01/14 09:26:08;;;;;;;32.57;8.97;;;1.40;99.90;;;;;;5011993;28;20030;-53
2024/01/14 09:28:36;;;;;;;29.60;8.77;;;1.50;99.90;;;;;;5011848;28;20402;-54
2024/01/14 09:31:04;;;;;;;33.77;10.33;;;1.50;99.90;;;;;;5015812;28;20065;-52
2024/01/14 09:33:30;;;;;;;36.63;11.05;;;1.50;99.90;;;;;;5015838;28;20026;-52
2024/01/14 09:35:56;;;;;;;32.07;9.00;;;1.50;99.90;;;;;;5015663;28;20049;-53
2024/01/14 09:38:22;;;;;;;28.60;8.60;;;1.50;99.90;;;;;;5015807;28;20032;-53
2024/01/14 09:41:02;;;;;;;28.93;9.67;;;1.60;99.90;;;;;;5015481;28;20119;-53
2024/01/14 09:43:32;;;;;;;32.90;9.63;;;1.60;99.90;;;;;;5015654;28;20037;-52
2024/01/14 09:45:58;;;;;;;31.23;9.17;;;1.60;99.90;;;;;;5015739;28;20037;-55
2024/01/14 09:48:24;;;;;;;27.20;8.07;;;1.60;99.90;;;;;;5015585;28;20033;-54
2024/01/14 09:50:52;;;;;;;26.90;9.20;;;1.60;99.90;;;;;;5015364;28;20030;-52
2024/01/14 09:53:19;;;;;;;25.70;7.50;;;1.60;99.90;;;;;;5015621;28;20484;-53
2024/01/14 09:55:48;;;;;;;24.27;8.40;;;1.60;99.90;;;;;;5015420;28;20487;-54
2024/01/14 09:58:14;;;;;;;26.10;7.95;;;1.60;99.90;;;;;;5015374;28;20175;-55
2024/01/14 10:00:43;;;;;;;21.17;7.37;;;1.60;99.90;;;;;;5015356;28;20076;-50
2024/01/14 10:03:10;;;;;;;23.02;7.88;;;1.60;99.90;;;;;;5015300;28;20117;-53
2024/01/14 10:05:37;;;;;;;24.33;8.00;;;1.60;99.90;;;;;;5014195;28;20030;-52
2024/01/14 10:08:03;;;;;;;21.33;7.97;;;1.50;99.90;;;;;;5015440;28;20112;-54
2024/01/14 10:10:31;;;;;;;23.60;7.03;;;1.50;99.90;;;;;;5014918;28;20037;-55
2024/01/14 10:12:57;;;;;;;20.97;6.60;;;1.50;99.90;;;;;;5015158;28;20037;-52
2024/01/14 10:15:22;;;;;;;16.07;5.97;;;1.60;99.90;;;;;;5015183;28;20376;-53
2024/01/14 10:17:48;;;;;;;22.50;7.77;;;1.60;99.90;;;;;;5014880;28;20038;-54
2024/01/14 10:20:14;;;;;;;24.57;8.30;;;1.60;99.90;;;;;;5014848;28;20070;-55
2024/01/14 10:22:43;;;;;;;22.20;7.57;;;1.60;99.90;;;;;;5014907;28;20533;-53
2024/01/14 10:25:08;;;;;;;16.70;5.85;;;1.50;99.90;;;;;;5015014;28;20029;-50
2024/01/14 10:27:34;;;;;;;24.87;8.07;;;1.50;99.90;;;;;;5015088;28;20116;-51
2024/01/14 10:29:59;;;;;;;23.00;7.33;;;1.50;99.90;;;;;;5014669;28;20360;-53
2024/01/14 10:32:26;;;;;;;23.33;7.23;;;1.50;99.90;;;;;;5014689;28;20041;-53
2024/01/14 10:34:52;;;;;;;22.60;7.13;;;1.50;99.90;;;;;;5014790;28;20029;-52
2024/01/14 10:37:22;;;;;;;23.80;7.93;;;1.40;99.90;;;;;;5014673;28;20033;-55
2024/01/14 10:39:48;;;;;;;;;;;1.40;99.90;;;;;;5014728;28;20030;-52
2024/01/14 10:42:14;;;;;;;23.77;7.30;;;1.40;99.90;;;;;;5014722;28;20012;-53
2024/01/14 10:44:39;;;;;;;21.60;6.33;;;1.40;99.90;;;;;;5014697;28;20487;-54
2024/01/14 10:47:07;;;;;;;23.23;7.33;;;1.50;99.90;;;;;;5013404;28;20033;-54
2024/01/14 10:49:34;;;;;;;25.17;7.77;;;1.60;99.90;;;;;;5014586;28;20029;-55
2024/01/14 10:52:03;;;;;;;25.43;7.00;;;1.50;99.90;;;;;;5014204;28;20038;-54
2024/01/14 10:54:37;;;;;;;26.30;6.93;;;1.50;99.90;;;;;;5014385;28;20038;-53
2024/01/14 10:57:22;;;;;;;18.77;6.13;;;1.50;99.90;;;;;;5014350;28;20034;-53
2024/01/14 10:59:54;;;;;;;24.50;7.13;;;1.50;99.90;;;;;;5014087;28;20029;-54
2024/01/14 11:02:20;;;;;;;26.70;6.97;;;1.50;99.90;;;;;;5014234;28;20068;-53
2024/01/14 11:04:47;;;;;;;22.80;7.47;;;1.60;99.90;;;;;;5012855;28;20058;-54
2024/01/14 11:07:13;;;;;;;23.67;8.00;;;1.50;99.90;;;;;;5014138;28;20042;-53
2024/01/14 11:09:40;;;;;;;26.57;7.60;;;1.50;99.90;;;;;;5013907;28;20069;-54
2024/01/14 11:12:28;;;;;;;25.47;8.40;;;1.40;99.90;;;;;;5012886;28;20507;-53
2024/01/14 11:15:02;;;;;;;23.77;7.40;;;1.40;99.90;;;;;;5014051;28;20022;-53
2024/01/14 11:17:42;;;;;;;25.03;7.87;;;1.30;99.90;;;;;;5014057;28;20037;-53
2024/01/14 11:20:15;;;;;;;25.80;7.57;;;1.40;99.90;;;;;;5014220;28;20037;-55
2024/01/14 11:22:42;;;;;;;23.80;7.97;;;1.40;99.90;;;;;;5013895;28;20030;-51
2024/01/14 11:25:17;;;;;;;25.53;7.83;;;1.40;99.90;;;;;;5014041;28;20026;-55
2024/01/14 11:27:43;;;;;;;25.73;6.83;;;1.40;99.90;;;;;;5013903;28;20037;-54
2024/01/14 11:30:18;;;;;;;25.20;7.13;;;1.50;99.90;;;;;;5013596;28;20030;-54
2024/01/14 11:32:44;;;;;;;26.60;7.57;;;1.50;99.90;;;;;;5013611;28;20037;-54
2024/01/14 11:35:11;;;;;;;21.53;6.63;;;1.50;99.90;;;;;;5013874;28;20383;-56
2024/01/14 11:37:38;;;;;;;23.50;6.77;;;1.50;99.90;;;;;;5013591;28;20383;-56
2024/01/14 11:40:06;;;;;;;18.13;5.93;;;1.50;99.90;;;;;;5012181;28;20030;-53
2024/01/14 11:42:51;;;;;;;20.90;6.80;;;1.50;99.90;;;;;;5013509;28;20045;-55
2024/01/14 11:45:22;;;;;;;20.70;6.70;;;1.60;99.90;;;;;;5013623;28;20034;-53
2024/01/14 11:47:49;;;;;;;16.50;5.27;;;1.60;99.90;;;;;;5013274;28;20383;-52
2024/01/14 11:50:16;;;;;;;15.13;5.43;;;1.60;99.90;;;;;;5013205;28;20046;-53
2024/01/14 11:52:46;;;;;;;17.93;6.37;;;1.70;99.90;;;;;;5012693;28;20113;-55
2024/01/14 11:55:14;;;;;;;17.40;5.13;;;1.70;99.90;;;;;;5013144;28;20049;-50
2024/01/14 11:57:40;;;;;;;15.40;5.60;;;1.70;99.90;;;;;;5013074;28;20073;-55
2024/01/14 12:00:07;;;;;;;19.70;6.63;;;1.70;99.90;;;;;;5012902;28;20069;-51
2024/01/14 12:02:35;;;;;;;17.83;6.60;;;1.70;99.90;;;;;;5013010;28;20034;-52
2024/01/14 12:05:16;;;;;;;20.23;6.30;;;1.70;99.90;;;;;;5013192;28;20053;-55
2024/01/14 12:07:42;;;;;;;17.53;6.03;;;1.70;99.90;;;;;;5013129;28;20463;-54
2024/01/14 12:10:13;;;;;;;20.20;6.77;;;1.70;99.90;;;;;;5012670;28;20030;-53
2024/01/14 12:12:38;;;;;;;20.90;7.07;;;1.70;99.90;;;;;;5012867;28;20026;-53
2024/01/14 12:15:05;;;;;;;19.73;7.17;;;1.70;99.90;;;;;;5013062;28;20506;-53
2024/01/14 12:17:31;;;;;;;22.80;6.87;;;1.80;99.90;;;;;;5012947;28;20034;-53
2024/01/14 12:20:01;;;;;;;19.57;5.77;;;1.80;99.90;;;;;;5012585;28;20399;-54
2024/01/14 12:22:27;;;;;;;19.50;6.33;;;1.80;99.90;;;;;;5012680;28;20036;-53
2024/01/14 12:24:53;;;;;;;21.00;6.77;;;1.90;99.90;;;;;;5012840;28;20029;-49
2024/01/14 12:27:19;;;;;;;15.13;5.23;;;1.80;99.90;;;;;;5012548;28;20041;-53
2024/01/14 12:29:46;;;;;;;22.37;6.53;;;1.80;99.90;;;;;;5012297;28;20033;-54
2024/01/14 12:32:12;;;;;;;19.53;6.50;;;1.80;99.90;;;;;;5012493;28;20044;-53
2024/01/14 12:34:38;;;;;;;23.47;6.90;;;1.80;99.90;;;;;;5012534;28;20522;-56
2024/01/14 12:37:04;;;;;;;16.40;5.30;;;1.80;99.90;;;;;;5012231;28;20037;-54